Time;durP1;ratioP1;P1;durP2;ratioP2;P2;SDS_P1;SDS_P2;PMS_P1;PMS_P2;Temp;Humidity;BMP_temperature;BMP_pressure;BME280_temperature;BME280_humidity;BME280_pressure;Samples;Min_cycle;Max_cycle;Signal;HPM_P1;HPM_P2
2022/05/26 00:01:09;;;;;;;5.78;5.18;;;14.90;99.90;;;;;;5051755;28;20666;-72
2022/05/26 00:03:38;;;;;;;9.35;5.20;;;15.00;99.90;;;;;;5051111;28;20721;-72
2022/05/26 00:06:07;;;;;;;4.95;4.55;;;15.00;99.90;;;;;;5052417;28;20329;-72
2022/05/26 00:08:34;;;;;;;6.65;4.78;;;15.00;99.90;;;;;;5051775;28;20238;-72
2022/05/26 00:11:02;;;;;;;8.15;5.65;;;15.00;99.90;;;;;;5051756;28;20231;-72
2022/05/26 00:13:31;;;;;;;5.65;5.10;;;15.00;99.90;;;;;;5052420;28;20196;-73
2022/05/26 00:15:58;;;;;;;6.70;5.45;;;15.00;99.90;;;;;;5048980;28;20654;-73
2022/05/26 00:18:26;;;;;;;8.40;7.40;;;14.90;99.90;;;;;;5061174;28;20241;-72
2022/05/26 00:20:54;;;;;;;6.00;5.50;;;14.90;99.90;;;;;;5057479;28;20287;-73
2022/05/26 00:23:21;;;;;;;6.00;5.50;;;14.90;99.90;;;;;;5051705;28;20227;-73
2022/05/26 00:25:47;;;;;;;9.55;6.20;;;14.90;99.90;;;;;;5061173;28;20218;-73
2022/05/26 00:28:14;;;;;;;6.53;6.03;;;14.90;99.90;;;;;;5052857;28;20209;-72
2022/05/26 00:30:42;;;;;;;8.57;6.57;;;14.80;99.90;;;;;;5053007;28;20226;-73
2022/05/26 00:33:10;;;;;;;7.32;6.72;;;14.80;99.90;;;;;;5055494;28;20289;-72
2022/05/26 00:35:40;;;;;;;8.93;7.40;;;14.90;99.90;;;;;;5055184;28;20310;-73
2022/05/26 00:38:09;;;;;;;11.02;7.15;;;14.80;99.90;;;;;;5053612;28;20203;-72
2022/05/26 00:40:36;;;;;;;8.80;7.57;;;14.70;99.90;;;;;;5055399;28;20212;-72
2022/05/26 00:43:04;;;;;;;8.95;6.70;;;14.70;99.90;;;;;;5056347;28;20200;-73
2022/05/26 00:45:37;;;;;;;8.23;7.53;;;14.70;99.90;;;;;;5050739;28;20227;-73
2022/05/26 00:48:09;;;;;;;8.18;7.38;;;14.70;99.90;;;;;;5052822;28;20226;-73
2022/05/26 00:50:43;;;;;;;7.90;7.10;;;14.70;99.90;;;;;;5056243;28;20199;-73
2022/05/26 00:53:17;;;;;;;9.65;8.75;;;14.70;99.90;;;;;;5054840;28;20223;-72
2022/05/26 00:55:48;;;;;;;10.13;8.80;;;14.70;99.90;;;;;;5054244;28;20255;-72
2022/05/26 00:58:18;;;;;;;13.32;7.70;;;14.80;99.90;;;;;;5056168;28;20633;-72
2022/05/26 01:00:47;;;;;;;9.77;8.43;;;14.80;99.90;;;;;;5054795;28;20287;-73
2022/05/26 01:03:19;;;;;;;10.23;7.80;;;14.80;99.90;;;;;;5052371;28;20322;-73
2022/05/26 01:05:53;;;;;;;9.82;8.82;;;14.70;99.90;;;;;;5055230;28;20301;-72
2022/05/26 01:08:44;;;;;;;8.88;8.00;;;14.80;99.90;;;;;;5054309;28;20238;-74
2022/05/26 01:11:11;;;;;;;12.73;10.65;;;14.80;99.90;;;;;;5053044;28;20601;-72
2022/05/26 01:13:43;;;;;;;9.15;7.57;;;14.80;99.90;;;;;;5055961;28;20203;-73
2022/05/26 01:16:16;;;;;;;8.55;7.75;;;14.70;99.90;;;;;;5055894;28;20314;-73
2022/05/26 01:18:50;;;;;;;8.90;8.00;;;14.70;99.90;;;;;;5058395;28;20279;-72
2022/05/26 01:21:28;;;;;;;10.15;9.15;;;14.80;99.90;;;;;;5058835;28;20214;-72
2022/05/26 01:24:32;;;;;;;10.55;9.45;;;14.80;99.90;;;;;;5059156;28;20226;-72
2022/05/26 01:27:32;;;;;;;14.45;10.15;;;14.80;99.90;;;;;;5060333;28;20301;-71
2022/05/26 01:30:28;;;;;;;10.88;9.52;;;14.80;99.90;;;;;;5063888;28;20642;-72
2022/05/26 01:33:21;;;;;;;9.93;8.93;;;14.80;99.90;;;;;;5054347;28;20294;-72
2022/05/26 01:36:03;;;;;;;11.23;10.13;;;14.80;99.90;;;;;;5061422;28;22170;-71
2022/05/26 01:38:38;;;;;;;11.27;9.88;;;14.80;99.90;;;;;;5054844;28;20275;-72
2022/05/26 01:41:17;;;;;;;13.05;9.30;;;14.80;99.90;;;;;;5050567;28;20298;-71
2022/05/26 01:43:54;;;;;;;15.02;10.50;;;14.80;99.90;;;;;;5055118;28;20302;-71
2022/05/26 01:46:29;;;;;;;10.38;9.25;;;14.80;99.90;;;;;;5054906;28;20673;-71
2022/05/26 01:49:05;;;;;;;11.82;10.50;;;14.80;99.90;;;;;;5053674;28;20285;-71
2022/05/26 01:51:36;;;;;;;13.80;10.40;;;14.80;99.90;;;;;;5053976;28;20278;-72
2022/05/26 01:54:11;;;;;;;12.32;8.98;;;14.80;99.90;;;;;;5055206;28;20535;-71
2022/05/26 01:56:47;;;;;;;14.30;11.95;;;14.70;99.90;;;;;;5048515;28;20299;-72
2022/05/26 01:59:18;;;;;;;15.27;11.95;;;14.70;99.90;;;;;;5054003;28;20752;-71
2022/05/26 02:01:51;;;;;;;14.30;11.50;;;14.60;99.90;;;;;;5050780;28;20290;-71
2022/05/26 02:04:25;;;;;;;19.08;12.18;;;14.60;99.90;;;;;;5053986;28;20688;-71
2022/05/26 02:06:57;;;;;;;18.17;12.80;;;14.60;99.90;;;;;;5054755;28;20253;-72
2022/05/26 02:09:29;;;;;;;17.13;14.40;;;14.50;99.90;;;;;;5054707;28;20572;-72
2022/05/26 02:12:01;;;;;;;19.67;12.00;;;14.50;99.90;;;;;;5054059;28;20207;-72
2022/05/26 02:14:34;;;;;;;16.50;13.07;;;14.50;99.90;;;;;;5046760;28;20198;-71
2022/05/26 02:17:07;;;;;;;16.10;13.38;;;14.40;99.90;;;;;;5054419;28;20214;-71
2022/05/26 02:19:40;;;;;;;14.63;13.23;;;14.40;99.90;;;;;;5053404;28;20199;-72
2022/05/26 02:22:15;;;;;;;13.82;12.38;;;14.40;99.90;;;;;;5054042;28;20294;-72
2022/05/26 02:24:48;;;;;;;12.73;11.30;;;14.30;99.90;;;;;;5055535;28;20223;-71
2022/05/26 02:27:15;;;;;;;14.55;11.23;;;14.40;99.90;;;;;;5054394;28;20578;-71
2022/05/26 02:29:55;;;;;;;10.90;9.95;;;14.40;99.90;;;;;;5053644;28;20210;-71
2022/05/26 02:32:25;;;;;;;12.20;10.82;;;14.40;99.90;;;;;;5057108;28;20291;-70
2022/05/26 02:34:58;;;;;;;12.25;11.13;;;14.40;99.90;;;;;;5049886;28;20224;-70
2022/05/26 02:37:27;;;;;;;14.95;12.13;;;14.40;99.90;;;;;;5053256;28;20217;-71
2022/05/26 02:39:54;;;;;;;13.13;11.93;;;14.30;99.90;;;;;;5053357;28;20203;-70
2022/05/26 02:42:24;;;;;;;15.88;11.68;;;14.30;99.90;;;;;;5054202;28;20210;-70
2022/05/26 02:44:51;;;;;;;12.07;10.85;;;14.30;99.90;;;;;;5053934;28;20227;-70
2022/05/26 02:47:34;;;;;;;15.32;13.73;;;14.20;99.90;;;;;;5054012;28;20199;-71
2022/05/26 02:50:11;;;;;;;14.18;11.60;;;14.20;99.90;;;;;;5053492;28;20202;-71
2022/05/26 02:52:52;;;;;;;15.68;12.85;;;14.10;99.90;;;;;;5052784;28;20222;-72
2022/05/26 02:55:29;;;;;;;18.48;11.93;;;14.10;99.90;;;;;;5052430;28;20307;-71
2022/05/26 02:58:12;;;;;;;14.50;12.63;;;14.10;99.90;;;;;;5052008;28;20238;-71
2022/05/26 03:00:57;;;;;;;15.45;12.98;;;14.10;99.90;;;;;;5046847;28;20303;-71
2022/05/26 03:03:29;;;;;;;19.60;13.02;;;14.00;99.90;;;;;;5051515;28;20234;-71
2022/05/26 03:06:03;;;;;;;13.98;12.52;;;14.00;99.90;;;;;;5052029;28;20695;-69
2022/05/26 03:08:33;;;;;;;14.32;12.82;;;14.00;99.90;;;;;;5053691;28;20294;-70
2022/05/26 03:11:06;;;;;;;14.27;11.23;;;14.00;99.90;;;;;;5052972;28;20573;-72
2022/05/26 03:13:33;;;;;;;10.75;9.57;;;14.00;99.90;;;;;;5053387;28;20249;-70
2022/05/26 03:16:00;;;;;;;13.73;11.00;;;14.00;99.90;;;;;;5053344;28;20286;-72
2022/05/26 03:18:27;;;;;;;12.75;9.32;;;14.00;99.90;;;;;;5051913;28;20278;-71
2022/05/26 03:20:54;;;;;;;11.00;9.85;;;14.00;99.90;;;;;;5051715;28;20205;-71
2022/05/26 03:23:22;;;;;;;12.38;8.48;;;14.00;99.90;;;;;;5052983;28;20233;-73
2022/05/26 03:25:49;;;;;;;10.15;7.75;;;14.00;99.90;;;;;;5049473;28;20234;-72
2022/05/26 03:28:16;;;;;;;9.95;8.98;;;13.90;99.90;;;;;;5052392;28;20202;-70
2022/05/26 03:30:44;;;;;;;11.40;9.50;;;13.90;99.90;;;;;;5056868;28;20302;-71
2022/05/26 03:33:11;;;;;;;11.38;8.55;;;13.90;99.90;;;;;;5046419;28;20647;-71
2022/05/26 03:41:08;;;;;;;9.40;8.40;;;13.90;99.90;;;;;;5051618;28;20214;-71
2022/05/26 03:43:44;;;;;;;10.15;9.15;;;13.90;99.90;;;;;;5047066;28;20203;-71
2022/05/26 03:46:11;;;;;;;11.88;8.75;;;13.90;99.90;;;;;;5051920;28;20261;-71
2022/05/26 03:48:38;;;;;;;10.43;9.32;;;14.00;99.90;;;;;;5052397;28;20249;-72
2022/05/26 03:51:05;;;;;;;12.35;9.27;;;14.00;99.90;;;;;;5051566;28;20716;-71
2022/05/26 03:53:34;;;;;;;10.68;8.88;;;14.10;99.90;;;;;;5052331;28;20560;-71
2022/05/26 03:56:02;;;;;;;11.52;9.48;;;14.10;99.90;;;;;;5045965;28;20255;-72
2022/05/26 03:58:30;;;;;;;11.25;9.23;;;14.20;99.90;;;;;;5052330;28;20215;-72
2022/05/26 04:01:02;;;;;;;14.27;9.32;;;14.10;99.90;;;;;;5051619;28;20298;-72
2022/05/26 04:03:29;;;;;;;12.60;9.25;;;14.20;99.90;;;;;;5049650;28;20654;-72
2022/05/26 04:05:56;;;;;;;13.68;10.10;;;14.20;99.90;;;;;;5051727;28;20262;-71
2022/05/26 04:08:23;;;;;;;12.05;9.15;;;14.20;99.90;;;;;;5051908;28;20203;-71
2022/05/26 04:10:51;;;;;;;12.00;8.98;;;14.20;99.90;;;;;;5054736;28;20203;-71
2022/05/26 04:13:19;;;;;;;13.88;9.45;;;14.30;99.90;;;;;;5054571;28;20629;-71
2022/05/26 04:15:45;;;;;;;10.77;9.65;;;14.40;99.90;;;;;;5055712;28;20219;-71
2022/05/26 04:18:13;;;;;;;14.23;10.07;;;14.30;99.90;;;;;;5055688;28;20211;-71
2022/05/26 04:20:40;;;;;;;14.00;11.02;;;14.40;99.90;;;;;;5049287;28;20201;-71
2022/05/26 04:23:08;;;;;;;19.67;11.57;;;14.40;99.90;;;;;;5052408;28;20203;-71
2022/05/26 04:25:34;;;;;;;15.68;10.80;;;14.50;99.90;;;;;;5057283;28;20310;-71
2022/05/26 04:28:03;;;;;;;12.85;10.20;;;14.70;99.90;;;;;;5062226;28;20218;-70
2022/05/26 04:30:30;;;;;;;12.05;9.88;;;15.00;99.90;;;;;;5057492;28;20233;-70
2022/05/26 04:32:57;;;;;;;11.02;9.00;;;15.70;99.90;;;;;;5067711;28;20221;-71
2022/05/26 04:35:24;;;;;;;15.60;9.25;;;16.40;99.90;;;;;;5051586;28;20330;-71
2022/05/26 04:37:52;;;;;;;9.43;7.90;;;16.90;99.90;;;;;;5051869;28;20218;-71
2022/05/26 04:40:19;;;;;;;10.43;7.30;;;17.80;99.90;;;;;;5008564;28;1108713;-71
2022/05/26 04:42:46;;;;;;;10.40;7.97;;;18.50;99.90;;;;;;5050328;28;20213;-71
2022/05/26 04:45:15;;;;;;;10.17;7.60;;;18.90;99.90;;;;;;5055492;28;20555;-71
2022/05/26 04:47:42;;;;;;;9.67;6.87;;;19.30;99.90;;;;;;5048941;28;20438;-71
2022/05/26 04:50:11;;;;;;;11.97;7.40;;;19.40;99.90;;;;;;5055049;28;20469;-72
2022/05/26 04:52:39;;;;;;;9.37;8.40;;;19.60;99.90;;;;;;5047823;28;20484;-72
2022/05/26 04:55:07;;;;;;;10.60;7.60;;;19.40;99.90;;;;;;5053661;28;20469;-72
2022/05/26 04:57:34;;;;;;;14.23;9.03;;;18.90;99.90;;;;;;5054931;28;20469;-73
2022/05/26 05:00:01;;;;;;;9.73;8.13;;;18.20;99.90;;;;;;5055717;28;20450;-71
2022/05/26 05:02:31;;;;;;;17.83;8.88;;;17.50;99.90;;;;;;5055893;28;20483;-72
2022/05/26 05:04:57;;;;;;;19.98;10.43;;;17.00;99.90;;;;;;5055236;28;20294;-72
2022/05/26 05:07:26;;;;;;;15.20;10.52;;;16.60;99.90;;;;;;5055669;28;20206;-72
2022/05/26 05:09:53;;;;;;;14.93;11.55;;;16.80;99.90;;;;;;5055056;28;20206;-72
2022/05/26 05:12:22;;;;;;;19.27;10.13;;;17.20;99.90;;;;;;5056169;28;20233;-71
2022/05/26 05:14:51;;;;;;;10.93;8.43;;;17.80;99.90;;;;;;5055503;28;20468;-72
2022/05/26 05:17:19;;;;;;;11.57;9.23;;;18.00;99.90;;;;;;5054127;28;20482;-72
2022/05/26 05:19:49;;;;;;;15.43;9.20;;;18.30;99.90;;;;;;5053455;28;20481;-71
2022/05/26 05:22:21;;;;;;;15.93;10.80;;;18.00;99.90;;;;;;5050768;28;20502;-71
2022/05/26 05:24:52;;;;;;;14.87;8.90;;;17.60;99.90;;;;;;5056989;28;20495;-72
2022/05/26 05:27:24;;;;;;;22.17;12.70;;;17.30;99.90;;;;;;5055423;28;20440;-72
2022/05/26 05:29:54;;;;;;;16.50;11.10;;;17.20;99.90;;;;;;5050779;28;20853;-73
2022/05/26 05:32:25;;;;;;;16.95;11.05;;;16.80;99.90;;;;;;5041161;28;20448;-72
2022/05/26 05:35:02;;;;;;;16.90;12.13;;;16.50;99.90;;;;;;5053187;28;20316;-73
2022/05/26 05:37:31;;;;;;;17.60;11.40;;;16.50;99.90;;;;;;5053961;28;20213;-74
2022/05/26 05:39:58;;;;;;;15.43;8.90;;;16.40;99.90;;;;;;5054740;28;20276;-71
2022/05/26 05:42:25;;;;;;;19.17;10.50;;;16.30;99.90;;;;;;5052477;28;20291;-71
2022/05/26 05:44:51;;;;;;;13.30;10.13;;;16.30;99.90;;;;;;5054872;28;20335;-72
2022/05/26 05:47:18;;;;;;;14.70;9.00;;;16.40;99.90;;;;;;5056310;28;20207;-72
2022/05/26 05:49:45;;;;;;;14.87;10.43;;;17.20;99.90;;;;;;5054522;28;20235;-72
2022/05/26 05:52:18;;;;;;;11.70;8.67;;;17.80;99.90;;;;;;5054729;28;20524;-72
2022/05/26 05:54:45;;;;;;;17.57;8.60;;;17.90;99.90;;;;;;5054703;28;20469;-72
2022/05/26 05:57:12;;;;;;;12.57;7.93;;;18.20;99.90;;;;;;5047327;28;20481;-71
2022/05/26 05:59:39;;;;;;;14.77;9.10;;;18.50;99.90;;;;;;5054162;28;20533;-72
2022/05/26 06:02:07;;;;;;;8.50;6.50;;;18.90;99.90;;;;;;5054499;28;20480;-72
2022/05/26 06:04:41;;;;;;;18.80;7.80;;;19.80;99.90;;;;;;5051223;28;20483;-72
2022/05/26 06:07:09;;;;;;;9.00;5.50;;;20.70;99.90;;;;;;5053005;28;20926;-72
2022/05/26 06:09:37;;;;;;;10.30;6.20;;;20.70;99.90;;;;;;5053690;28;20442;-71
2022/05/26 06:12:06;;;;;;;11.50;6.13;;;21.10;99.90;;;;;;5049468;28;20467;-73
2022/05/26 06:14:33;;;;;;;12.67;6.13;;;21.30;99.90;;;;;;5053849;28;20524;-73
2022/05/26 06:17:00;;;;;;;9.50;6.60;;;20.90;99.90;;;;;;5053842;28;20520;-73
2022/05/26 06:19:34;;;;;;;11.23;6.33;;;20.40;99.90;;;;;;5046703;28;20451;-73
2022/05/26 06:22:07;;;;;;;17.63;5.63;;;19.80;99.90;;;;;;5047053;28;20532;-72
2022/05/26 06:24:36;;;;;;;8.60;4.30;;;20.40;99.90;;;;;;5065672;28;20574;-73
2022/05/26 06:29:49;;;;;;;11.67;4.30;;;21.70;99.90;;;;;;5052603;28;20505;-73
2022/05/26 06:29:50;;;;;;;8.67;4.63;;;22.70;99.90;;;;;;5047342;28;20492;-75
2022/05/26 06:37:48;;;;;;;7.83;4.87;;;24.40;93.80;;;;;;5046710;28;20609;-73
2022/05/26 06:40:17;;;;;;;13.50;6.83;;;24.70;91.60;;;;;;5049903;28;20450;-73
2022/05/26 06:42:45;;;;;;;7.40;3.70;;;23.50;92.70;;;;;;5049006;28;20538;-72
2022/05/26 06:45:16;;;;;;;9.10;5.30;;;23.80;93.70;;;;;;5042777;28;20467;-77
2022/05/26 06:47:43;;;;;;;9.00;5.07;;;23.30;92.80;;;;;;5054477;28;20434;-75
2022/05/26 06:50:13;;;;;;;11.07;4.40;;;23.60;92.90;;;;;;5054240;28;20457;-77
2022/05/26 06:52:40;;;;;;;7.13;2.77;;;24.60;92.00;;;;;;5054686;28;20945;-74
2022/05/26 06:55:08;;;;;;;5.00;2.47;;;25.30;90.30;;;;;;5055481;28;20557;-74
2022/05/26 06:57:36;;;;;;;9.73;2.70;;;26.20;84.70;;;;;;5054711;28;20465;-73
2022/05/26 07:00:06;;;;;;;9.20;3.23;;;26.50;82.20;;;;;;5053572;28;20450;-77
2022/05/26 07:02:33;;;;;;;7.87;3.30;;;26.50;80.80;;;;;;5042457;28;20534;-76
2022/05/26 07:05:00;;;;;;;10.63;3.23;;;26.50;81.00;;;;;;5047058;28;20948;-74
2022/05/26 07:07:27;;;;;;;10.37;3.93;;;26.80;81.10;;;;;;5051670;28;20568;-78
2022/05/26 07:09:55;;;;;;;8.53;2.60;;;27.40;79.10;;;;;;5046657;28;20442;-74
2022/05/26 07:12:23;;;;;;;7.73;2.60;;;28.00;77.10;;;;;;5043171;28;20456;-76
2022/05/26 07:14:52;;;;;;;10.13;2.80;;;28.00;74.30;;;;;;5045907;28;20534;-75
2022/05/26 07:17:19;;;;;;;6.07;2.17;;;28.30;73.60;;;;;;5046980;28;20473;-75
2022/05/26 07:19:47;;;;;;;8.63;2.87;;;27.30;73.00;;;;;;5037676;28;20525;-77
2022/05/26 07:22:14;;;;;;;9.27;3.27;;;27.40;74.10;;;;;;5056477;28;20438;-75
2022/05/26 07:24:42;;;;;;;8.83;3.40;;;27.20;74.70;;;;;;5052731;28;20475;-75
2022/05/26 07:27:09;;;;;;;10.50;2.90;;;25.90;75.10;;;;;;5050409;28;20480;-74
2022/05/26 07:29:36;;;;;;;5.10;2.40;;;25.30;77.30;;;;;;5057815;28;20441;-76
2022/05/26 07:32:06;;;;;;;9.13;2.17;;;24.40;80.60;;;;;;5060470;28;20963;-74
2022/05/26 07:34:33;;;;;;;7.10;2.90;;;23.80;81.70;;;;;;5051129;28;20447;-73
2022/05/26 07:42:34;;;;;;;6.43;2.27;;;25.90;76.70;;;;;;5047736;28;20436;-74
2022/05/26 07:45:03;;;;;;;7.00;1.63;;;25.30;76.20;;;;;;5055372;28;20505;-73
2022/05/26 07:47:31;;;;;;;5.67;2.33;;;24.10;76.50;;;;;;5041224;28;20438;-74
2022/05/26 07:49:58;;;;;;;7.00;2.50;;;23.10;80.20;;;;;;5045973;28;20497;-73
2022/05/26 07:52:25;;;;;;;11.63;3.03;;;22.60;82.80;;;;;;5047261;28;20466;-73
2022/05/26 07:54:53;;;;;;;4.20;1.73;;;22.40;83.70;;;;;;5044948;28;20975;-74
2022/05/26 07:57:22;;;;;;;6.33;1.90;;;23.40;82.90;;;;;;5052572;28;21172;-73
2022/05/26 07:59:50;;;;;;;5.77;1.77;;;24.60;79.90;;;;;;5050634;28;20449;-76
2022/05/26 08:02:18;;;;;;;4.67;1.80;;;24.80;78.20;;;;;;5038461;28;20483;-75
2022/05/26 08:04:47;;;;;;;7.70;2.37;;;25.40;76.90;;;;;;5044402;28;20462;-73
2022/05/26 08:07:15;;;;;;;7.67;1.80;;;26.40;73.10;;;;;;5039997;28;21076;-74
2022/05/26 08:09:42;;;;;;;6.73;1.97;;;26.10;72.70;;;;;;5044202;28;20520;-74
2022/05/26 08:12:11;;;;;;;4.70;1.50;;;25.90;72.60;;;;;;5050764;28;20470;-75
2022/05/26 08:14:39;;;;;;;3.43;1.30;;;26.10;73.00;;;;;;5042198;28;20470;-73
2022/05/26 08:17:07;;;;;;;4.80;1.27;;;26.20;69.30;;;;;;5045262;28;20450;-75
2022/05/26 08:19:34;;;;;;;4.20;1.47;;;25.70;68.80;;;;;;5050345;28;20929;-73
2022/05/26 08:22:02;;;;;;;5.20;1.60;;;25.80;68.50;;;;;;5044769;28;20446;-73
2022/05/26 08:24:29;;;;;;;4.87;1.47;;;26.50;68.90;;;;;;5050459;28;20538;-73
2022/05/26 08:26:57;;;;;;;3.17;1.67;;;27.00;66.00;;;;;;5049475;28;20565;-71
2022/05/26 08:29:24;;;;;;;4.90;1.43;;;27.70;65.40;;;;;;5048775;28;20438;-74
2022/05/26 08:31:52;;;;;;;4.70;1.57;;;28.10;62.60;;;;;;5042828;28;20489;-72
2022/05/26 08:34:19;;;;;;;1.63;0.80;;;28.40;61.30;;;;;;5050030;28;20442;-74
2022/05/26 08:36:46;;;;;;;3.77;1.50;;;27.10;61.30;;;;;;5049530;28;20870;-74
2022/05/26 08:39:15;;;;;;;3.97;1.67;;;26.60;63.80;;;;;;5048133;28;20919;-73
2022/05/26 08:41:46;;;;;;;4.00;1.40;;;25.80;64.20;;;;;;5050451;28;20457;-73
2022/05/26 08:44:21;;;;;;;6.67;1.30;;;25.80;65.70;;;;;;5053700;28;20959;-72
2022/05/26 08:46:52;;;;;;;2.50;1.47;;;25.70;66.50;;;;;;5054841;28;20449;-73
2022/05/26 08:49:28;;;;;;;6.80;1.40;;;25.20;67.70;;;;;;5051918;28;21005;-73
2022/05/26 08:52:01;;;;;;;2.80;1.23;;;24.70;69.20;;;;;;5046896;28;20442;-73
2022/05/26 08:54:38;;;;;;;4.17;1.63;;;24.20;70.70;;;;;;5046186;28;20457;-72
2022/05/26 08:57:09;;;;;;;27.07;18.23;;;23.30;72.50;;;;;;5069568;28;20437;-74
2022/05/26 08:59:40;;;;;;;6.60;2.83;;;22.80;74.90;;;;;;5066806;28;20477;-73
2022/05/26 09:02:24;;;;;;;4.73;1.67;;;22.40;76.00;;;;;;5056414;28;20500;-72
2022/05/26 09:04:51;;;;;;;9.10;1.10;;;22.00;78.30;;;;;;5052638;28;20823;-72
2022/05/26 09:13:06;;;;;;;4.37;1.10;;;23.50;76.50;;;;;;5053732;28;20438;-72
2022/05/26 09:15:35;;;;;;;6.27;1.90;;;23.30;75.70;;;;;;5055154;28;20544;-72
2022/05/26 09:18:12;;;;;;;4.47;1.50;;;23.20;75.80;;;;;;5053875;28;20446;-72
2022/05/26 09:20:40;;;;;;;4.63;1.43;;;23.30;76.80;;;;;;5055497;28;20521;-73
2022/05/26 09:23:21;;;;;;;5.37;1.50;;;23.10;75.90;;;;;;5053793;28;20474;-72
2022/05/26 09:25:51;;;;;;;2.90;1.23;;;22.40;76.50;;;;;;5055331;28;20473;-73
2022/05/26 09:28:30;;;;;;;3.80;1.10;;;21.70;78.30;;;;;;5055182;28;20472;-73
2022/05/26 09:31:22;;;;;;;1.70;0.90;;;21.30;79.80;;;;;;5048556;28;20525;-70
2022/05/26 09:34:01;;;;;;;5.73;1.20;;;21.00;81.50;;;;;;5042705;28;20456;-71
2022/05/26 09:36:30;;;;;;;8.60;1.50;;;20.90;83.00;;;;;;5052821;28;20509;-71
2022/05/26 09:39:22;;;;;;;3.93;1.30;;;21.00;83.20;;;;;;5055336;28;20550;-72
2022/05/26 09:41:52;;;;;;;5.47;1.50;;;21.20;84.10;;;;;;5067468;28;20548;-71
2022/05/26 09:44:32;;;;;;;2.70;0.93;;;22.40;82.70;;;;;;5055458;28;20508;-71
2022/05/26 09:50:49;;;;;;;6.80;1.40;;;22.20;79.40;;;;;;5053949;28;20922;-71
2022/05/26 09:53:31;;;;;;;2.40;0.90;;;21.80;80.90;;;;;;5052771;28;20532;-73
2022/05/26 09:55:58;;;;;;;4.10;0.90;;;22.20;81.30;;;;;;5054532;28;20477;-71
2022/05/26 09:58:29;;;;;;;4.93;1.63;;;21.80;80.30;;;;;;5053750;28;20488;-72
2022/05/26 10:01:41;;;;;;;1.50;0.90;;;21.30;82.00;;;;;;5053385;28;20481;-71
2022/05/26 10:04:17;;;;;;;2.83;1.23;;;20.80;83.60;;;;;;5054611;28;20445;-70
2022/05/26 10:06:50;;;;;;;2.87;0.97;;;20.70;85.20;;;;;;5051863;28;20954;-71
2022/05/26 10:09:25;;;;;;;1.90;1.10;;;21.50;85.40;;;;;;5052020;28;20568;-72
2022/05/26 10:12:19;;;;;;;1.83;0.93;;;22.40;82.10;;;;;;5051592;28;20430;-72
2022/05/26 10:15:16;;;;;;;1.87;1.07;;;23.50;80.40;;;;;;5051381;28;20551;-71
2022/05/26 10:18:03;;;;;;;3.33;0.80;;;24.50;77.50;;;;;;5057392;28;20586;-71
2022/05/26 10:20:43;;;;;;;4.77;1.57;;;24.30;76.60;;;;;;5051850;28;20499;-73
2022/05/26 10:23:40;;;;;;;2.97;1.17;;;23.40;77.00;;;;;;5062550;28;20522;-71
2022/05/26 10:26:21;;;;;;;3.77;1.47;;;23.00;78.90;;;;;;5056979;28;20835;-73
2022/05/26 10:29:20;;;;;;;1.83;1.30;;;22.50;80.50;;;;;;5052813;28;20510;-72
2022/05/26 10:32:05;;;;;;;5.10;1.33;;;22.10;81.90;;;;;;5052077;28;20525;-72
2022/05/26 10:34:48;;;;;;;6.00;1.10;;;21.70;83.20;;;;;;5035835;28;20905;-72
2022/05/26 10:37:27;;;;;;;3.67;1.20;;;21.90;83.30;;;;;;5036187;28;20463;-73
2022/05/26 10:40:09;;;;;;;2.37;0.80;;;22.20;82.30;;;;;;5036462;28;20573;-73
2022/05/26 10:42:41;;;;;;;2.53;0.90;;;22.40;81.10;;;;;;5037068;28;20458;-73
2022/05/26 10:45:16;;;;;;;2.83;1.27;;;21.80;80.50;;;;;;5035241;28;21345;-73
2022/05/26 10:47:49;;;;;;;2.80;1.30;;;21.90;81.10;;;;;;5034758;28;21267;-73
2022/05/26 10:50:26;;;;;;;6.80;1.57;;;21.80;81.40;;;;;;5048863;28;20449;-73
2022/05/26 10:53:00;;;;;;;6.10;1.70;;;21.50;83.90;;;;;;5045324;28;20456;-71
2022/05/26 10:55:37;;;;;;;3.77;1.00;;;21.30;84.70;;;;;;5050064;28;20557;-73
2022/05/26 10:58:10;;;;;;;2.50;1.13;;;21.00;85.00;;;;;;5047571;28;20448;-72
2022/05/26 11:00:37;;;;;;;4.20;1.30;;;20.70;85.40;;;;;;5047302;28;20473;-73
2022/05/26 11:03:14;;;;;;;5.50;1.33;;;21.00;86.00;;;;;;5047153;28;20470;-73
2022/05/26 11:05:46;;;;;;;2.80;0.77;;;21.20;85.60;;;;;;5045707;28;20481;-72
2022/05/26 11:08:31;;;;;;;3.07;1.37;;;21.30;85.50;;;;;;5049384;28;20456;-72
2022/05/26 11:11:03;;;;;;;2.73;1.30;;;21.50;85.40;;;;;;5050457;28;20488;-73
2022/05/26 11:13:42;;;;;;;3.33;0.87;;;21.70;84.90;;;;;;5044522;28;20453;-72
2022/05/26 11:19:14;;;;;;;2.93;1.10;;;22.20;79.80;;;;;;5048602;28;21023;-71
2022/05/26 11:21:41;;;;;;;2.43;1.00;;;22.00;79.20;;;;;;5047152;28;20535;-72
2022/05/26 11:24:10;;;;;;;3.00;1.67;;;21.80;80.70;;;;;;5045807;28;20451;-72
2022/05/26 11:26:42;;;;;;;5.37;1.30;;;21.70;81.80;;;;;;5051682;28;20541;-71
2022/05/26 11:29:14;;;;;;;2.20;1.00;;;21.60;82.30;;;;;;5050054;28;20525;-72
2022/05/26 11:37:36;;;;;;;5.90;1.63;;;21.30;83.20;;;;;;5051639;28;20491;-70
2022/05/26 11:40:06;;;;;;;1.67;0.90;;;21.50;83.50;;;;;;5049891;28;20489;-71
2022/05/26 11:42:36;;;;;;;3.00;1.00;;;21.60;82.50;;;;;;5050910;28;20442;-70
2022/05/26 11:45:22;;;;;;;2.53;1.00;;;21.50;81.70;;;;;;5045090;28;20475;-71
2022/05/26 11:47:55;;;;;;;1.40;0.90;;;20.90;82.10;;;;;;5048471;28;20439;-71
2022/05/26 11:50:48;;;;;;;4.20;1.23;;;20.50;84.90;;;;;;5050418;28;20442;-72
2022/05/26 11:53:39;;;;;;;3.13;1.33;;;20.50;85.60;;;;;;5055916;28;20463;-72
2022/05/26 11:56:56;;;;;;;7.10;1.90;;;20.60;85.20;;;;;;5038773;28;20466;-74
2022/05/26 11:59:45;;;;;;;4.70;1.27;;;20.60;85.10;;;;;;5045744;28;20925;-73
2022/05/26 12:02:30;;;;;;;4.33;0.87;;;20.60;85.60;;;;;;5047844;28;20972;-71
2022/05/26 12:04:57;;;;;;;2.83;0.87;;;20.40;85.30;;;;;;5036436;28;20472;-71
2022/05/26 12:07:41;;;;;;;4.13;1.30;;;20.40;86.10;;;;;;5051202;28;20532;-72
2022/05/26 12:10:22;;;;;;;3.43;1.30;;;20.70;86.70;;;;;;5051587;28;20441;-70
2022/05/26 12:12:50;;;;;;;5.80;1.67;;;20.80;86.10;;;;;;5053590;28;20534;-71
2022/05/26 12:15:21;;;;;;;3.40;1.17;;;21.00;85.50;;;;;;5047244;28;20471;-73
2022/05/26 12:17:50;;;;;;;3.23;0.97;;;21.00;85.70;;;;;;5038495;28;20880;-71
2022/05/26 12:20:33;;;;;;;5.00;1.30;;;21.10;86.00;;;;;;5050436;28;20511;-72
2022/05/26 12:23:26;;;;;;;10.57;1.60;;;21.30;85.90;;;;;;5051947;28;20799;-71
2022/05/26 12:26:28;;;;;;;2.67;0.87;;;21.70;84.70;;;;;;5052431;28;20454;-71
2022/05/26 12:28:56;;;;;;;3.80;1.10;;;22.00;84.00;;;;;;5050354;28;20471;-72
2022/05/26 12:31:23;;;;;;;2.43;1.30;;;21.80;82.90;;;;;;5041584;28;20449;-70
2022/05/26 12:34:22;;;;;;;4.90;1.93;;;21.80;84.00;;;;;;5055712;28;20444;-70
2022/05/26 12:36:57;;;;;;;3.50;1.40;;;21.90;84.00;;;;;;5056287;28;20438;-72
2022/05/26 12:39:58;;;;;;;3.87;0.90;;;21.70;82.90;;;;;;5053610;28;20557;-72
2022/05/26 12:42:40;;;;;;;9.70;1.63;;;21.40;84.30;;;;;;5029394;28;20539;-71
2022/05/26 12:45:26;;;;;;;3.20;0.90;;;21.40;84.80;;;;;;5052834;28;20808;-71
2022/05/26 12:48:15;;;;;;;4.10;1.20;;;21.40;84.20;;;;;;5056105;28;20476;-71
2022/05/26 12:50:43;;;;;;;3.33;1.13;;;21.50;84.30;;;;;;5048760;28;20566;-70
2022/05/26 12:53:17;;;;;;;3.57;1.00;;;21.50;84.30;;;;;;5053236;28;20525;-73
2022/05/26 12:55:51;;;;;;;4.27;2.03;;;21.70;84.00;;;;;;5053182;28;21056;-72
2022/05/26 13:01:26;;;;;;;;;;;;;;;;;;;;;
2022/05/26 13:04:24;;;;;;;1.87;1.00;;;21.80;82.50;;;;;;5059005;28;20528;-75
2022/05/26 13:07:11;;;;;;;1.87;0.90;;;21.70;83.30;;;;;;5058804;28;20494;-71
2022/05/26 13:09:44;;;;;;;1.40;1.00;;;21.50;84.00;;;;;;5065587;28;20453;-74
2022/05/26 13:12:39;;;;;;;4.17;1.33;;;21.20;85.10;;;;;;5058501;28;20527;-74
2022/05/26 13:15:08;;;;;;;4.57;1.60;;;21.20;85.50;;;;;;5048088;28;20975;-71
2022/05/26 13:17:46;;;;;;;3.10;0.90;;;21.60;85.50;;;;;;5055919;28;20469;-72
2022/05/26 13:20:25;;;;;;;1.23;0.80;;;21.70;84.50;;;;;;5057619;28;20488;-71
2022/05/26 13:22:51;;;;;;;3.80;1.40;;;21.60;84.50;;;;;;5044527;28;20576;-71
2022/05/26 13:25:26;;;;;;;2.03;0.90;;;21.60;85.50;;;;;;5057930;28;20963;-71
2022/05/26 13:27:59;;;;;;;5.03;1.70;;;21.20;85.40;;;;;;5054664;28;20524;-71
2022/05/26 13:33:26;;;;;;;1.67;0.93;;;20.50;87.40;;;;;;5074572;28;20439;-73
2022/05/26 13:35:57;;;;;;;3.13;0.90;;;20.20;88.20;;;;;;5054717;28;20462;-73
2022/05/26 13:38:32;;;;;;;2.77;1.53;;;20.20;89.00;;;;;;5054714;28;20445;-72
2022/05/26 13:41:01;;;;;;;3.00;1.30;;;20.10;89.40;;;;;;5043189;28;20516;-72
2022/05/26 13:43:35;;;;;;;3.43;2.23;;;20.20;90.00;;;;;;5047305;28;20874;-75
2022/05/26 13:46:05;;;;;;;1.73;1.00;;;20.10;90.00;;;;;;5054188;28;20478;-75
2022/05/26 13:48:36;;;;;;;4.87;1.77;;;20.10;90.40;;;;;;5050597;28;20835;-70
2022/05/26 13:51:12;;;;;;;3.40;1.37;;;20.20;90.50;;;;;;5047262;28;20449;-71
2022/05/26 13:53:42;;;;;;;3.87;1.50;;;20.30;90.20;;;;;;5052776;28;20440;-73